Time;durP1;ratioP1;P1;durP2;ratioP2;P2;SDS_P1;SDS_P2;PMS_P1;PMS_P2;Temp;Humidity;BMP_temperature;BMP_pressure;BME280_temperature;BME280_humidity;BME280_pressure;Samples;Min_cycle;Max_cycle;Signal;HPM_P1;HPM_P2
2023/11/21 00:00:55;;;;;;;4.63;2.70;;;;;;;9.71;100.00;101193.88;2094665;28;20183;-73
2023/11/21 00:01:56;;;;;;;3.87;2.20;;;;;;;9.71;100.00;101193.06;2095466;28;20209;-72
2023/11/21 00:02:57;;;;;;;4.10;2.07;;;;;;;9.72;100.00;101189.09;2094324;28;20210;-73
2023/11/21 00:03:57;;;;;;;3.80;2.20;;;;;;;9.70;100.00;101194.28;2095119;28;20487;-73
2023/11/21 00:04:58;;;;;;;4.43;2.47;;;;;;;9.70;100.00;101195.06;2089458;28;20577;-73
2023/11/21 00:05:58;;;;;;;4.63;2.50;;;;;;;9.69;100.00;101196.25;2086343;28;20242;-73
2023/11/21 00:06:59;;;;;;;4.67;2.90;;;;;;;9.69;100.00;101189.94;2088950;28;20178;-73
2023/11/21 00:07:59;;;;;;;5.23;3.00;;;;;;;9.66;100.00;101196.28;2093772;28;20183;-73
2023/11/21 00:09:00;;;;;;;3.90;2.23;;;;;;;8.93;100.00;101104.59;2087045;28;20267;-73
2023/11/21 00:10:00;;;;;;;4.87;2.50;;;;;;;9.46;100.00;101187.81;2095350;28;20657;-73
2023/11/21 00:11:01;;;;;;;3.90;2.23;;;;;;;9.43;100.00;101190.63;2088050;28;20548;-73
2023/11/21 00:12:02;;;;;;;4.47;2.33;;;;;;;9.38;100.00;101194.59;2092404;28;20196;-73
2023/11/21 00:13:02;;;;;;;3.63;2.20;;;;;;;9.35;100.00;101191.88;2094663;28;20203;-73
2023/11/21 00:14:03;;;;;;;4.07;2.40;;;;;;;9.39;100.00;101192.63;2095151;28;20190;-73
2023/11/21 00:15:10;;;;;;;5.80;2.07;;;;;;;9.40;100.00;101188.66;2094418;28;20186;-73
2023/11/21 00:16:11;;;;;;;6.50;2.13;;;;;;;8.92;100.00;101116.06;2094071;28;20187;-73
2023/11/21 00:17:11;;;;;;;4.23;2.37;;;;;;;9.37;100.00;101189.50;2093783;28;20417;-73
2023/11/21 00:18:12;;;;;;;4.63;2.50;;;;;;;9.36;100.00;101187.91;2094676;28;20711;-73
2023/11/21 00:19:12;;;;;;;5.17;2.13;;;;;;;9.38;100.00;101191.84;2094615;28;20279;-73
2023/11/21 00:20:13;;;;;;;5.00;2.53;;;;;;;9.39;100.00;101195.41;2094749;28;20652;-73
2023/11/21 00:21:14;;;;;;;4.57;2.70;;;;;;;9.41;100.00;101196.56;2094800;28;20651;-73
2023/11/21 00:22:15;;;;;;;3.97;1.97;;;;;;;9.41;100.00;101193.00;2094633;28;20215;-73
2023/11/21 00:23:16;;;;;;;4.77;2.20;;;;;;;9.41;100.00;101193.78;2094766;28;20224;-73
2023/11/21 00:24:17;;;;;;;7.10;2.43;;;;;;;9.32;100.00;101190.72;2094736;28;20444;-73
2023/11/21 00:25:18;;;;;;;4.73;2.20;;;;;;;9.32;100.00;101181.66;2094118;28;20186;-72
2023/11/21 00:26:18;;;;;;;5.20;2.50;;;;;;;9.42;100.00;101202.84;2086543;28;20668;-73
2023/11/21 00:27:18;;;;;;;5.23;2.30;;;;;;;9.41;100.00;101198.53;2086598;28;20689;-73
2023/11/21 00:28:19;;;;;;;5.20;2.10;;;;;;;9.39;100.00;101196.16;2086716;28;20210;-73
2023/11/21 00:29:19;;;;;;;6.07;2.30;;;;;;;9.13;100.00;101157.34;2090769;28;20194;-73
2023/11/21 00:30:22;;;;;;;5.30;2.40;;;;;;;9.40;100.00;101191.44;2093859;28;20294;-73
2023/11/21 00:31:22;;;;;;;3.40;2.10;;;;;;;9.36;100.00;101194.22;2093856;28;20646;-73
2023/11/21 00:32:23;;;;;;;4.30;2.50;;;;;;;9.37;100.00;101190.28;2094712;28;20470;-73
2023/11/21 00:33:25;;;;;;;4.07;2.30;;;;;;;9.37;100.00;101186.75;2095247;28;20254;-73
2023/11/21 00:34:25;;;;;;;4.17;2.33;;;;;;;9.35;100.00;101184.38;2087738;28;20523;-73
2023/11/21 00:35:26;;;;;;;5.83;2.70;;;;;;;9.35;100.00;101189.09;2094453;28;20474;-73
2023/11/21 00:36:27;;;;;;;5.27;2.43;;;;;;;9.27;100.00;101174.56;2094170;28;20269;-73
2023/11/21 00:37:28;;;;;;;4.50;2.33;;;;;;;9.35;100.00;101183.56;2094772;28;20660;-73
2023/11/21 00:38:28;;;;;;;5.07;2.37;;;;;;;9.36;100.00;101182.38;2091554;28;20891;-72
2023/11/21 00:39:29;;;;;;;5.57;2.30;;;;;;;9.29;100.00;101174.16;2088507;28;20670;-73
2023/11/21 00:40:29;;;;;;;8.00;2.63;;;;;;;9.31;100.00;101183.63;2094008;28;20222;-73
2023/11/21 00:41:29;;;;;;;5.63;2.80;;;;;;;9.24;100.00;101175.41;2094129;28;20183;-73
2023/11/21 00:42:31;;;;;;;4.70;2.40;;;;;;;9.32;100.00;101184.41;2094783;28;20203;-73
2023/11/21 00:43:33;;;;;;;5.70;2.10;;;;;;;8.99;100.00;101124.28;2094316;28;20621;-73
2023/11/21 00:44:34;;;;;;;5.60;2.30;;;;;;;9.35;100.00;101189.91;2094098;28;20446;-73
2023/11/21 00:45:36;;;;;;;4.97;2.37;;;;;;;9.32;100.00;101196.25;2093431;28;20464;-73
2023/11/21 00:46:36;;;;;;;4.57;2.30;;;;;;;9.35;100.00;101189.91;2094254;28;20206;-73
2023/11/21 00:47:38;;;;;;;6.30;2.10;;;;;;;9.36;100.00;101185.13;2092870;28;20926;-73
2023/11/21 00:48:38;;;;;;;5.03;2.40;;;;;;;9.35;100.00;101189.91;2087244;28;20640;-73
2023/11/21 00:49:39;;;;;;;4.80;2.00;;;;;;;9.33;100.00;101178.44;2095221;28;20853;-73
2023/11/21 00:50:39;;;;;;;6.00;2.50;;;;;;;9.31;100.00;101174.53;2094709;28;20569;-73
2023/11/21 00:51:40;;;;;;;5.23;2.40;;;;;;;9.30;100.00;101172.97;2088036;28;20762;-73
2023/11/21 00:52:41;;;;;;;4.57;2.53;;;;;;;9.36;100.00;101183.19;2086402;28;20202;-73
2023/11/21 00:53:41;;;;;;;2.83;1.80;;;;;;;9.36;100.00;101176.84;2086612;28;20205;-72
2023/11/21 00:54:42;;;;;;;4.83;2.40;;;;;;;9.39;100.00;101173.28;2089035;28;20423;-73
2023/11/21 00:55:43;;;;;;;4.23;2.20;;;;;;;9.11;100.00;101143.13;2092588;28;20193;-73
2023/11/21 00:56:43;;;;;;;5.93;2.70;;;;;;;9.39;100.00;101178.81;2086257;28;20420;-73
2023/11/21 00:57:44;;;;;;;4.63;2.20;;;;;;;9.36;100.00;101180.41;2095016;28;20320;-73
2023/11/21 00:58:49;;;;;;;4.83;2.30;;;;;;;8.69;100.00;101077.19;2094763;28;20350;-73
2023/11/21 00:59:50;;;;;;;7.87;2.10;;;;;;;9.38;100.00;101180.00;2095005;28;20716;-73
2023/11/21 01:00:50;;;;;;;3.37;2.10;;;;;;;9.36;100.00;101180.41;2094568;28;21225;-73
2023/11/21 01:01:50;;;;;;;4.67;2.53;;;;;;;9.35;100.00;101175.28;2090738;28;20589;-73
2023/11/21 01:02:51;;;;;;;6.63;2.33;;;;;;;9.35;100.00;101175.28;2088309;28;20271;-73
2023/11/21 01:03:52;;;;;;;6.40;2.30;;;;;;;9.32;100.00;101179.66;2094252;28;20289;-73
2023/11/21 01:04:52;;;;;;;3.67;1.90;;;;;;;9.33;100.00;101175.69;2094264;28;20354;-73
2023/11/21 01:05:53;;;;;;;3.60;2.07;;;;;;;9.26;100.00;101163.91;2094573;28;20184;-74
2023/11/21 01:06:54;;;;;;;2.87;1.80;;;;;;;8.78;100.00;101086.59;2094357;28;20675;-73
2023/11/21 01:07:54;;;;;;;4.43;2.23;;;;;;;9.42;100.00;101178.75;2088547;28;20203;-73
2023/11/21 01:08:55;;;;;;;6.00;2.20;;;;;;;9.41;100.00;101177.19;2086277;28;20195;-73
2023/11/21 01:09:56;;;;;;;3.23;1.73;;;;;;;9.41;100.00;101188.25;2092599;28;20226;-73
2023/11/21 01:10:56;;;;;;;4.77;2.03;;;;;;;9.40;100.00;101183.13;2095559;28;20184;-73
2023/11/21 01:11:57;;;;;;;3.47;1.80;;;;;;;9.37;100.00;101184.75;2094388;28;20190;-73
2023/11/21 01:12:57;;;;;;;3.17;2.13;;;;;;;9.38;100.00;101177.22;2094554;28;20259;-73
2023/11/21 01:13:59;;;;;;;3.97;1.80;;;;;;;9.26;100.00;101175.75;2094745;28;20774;-73
2023/11/21 01:15:00;;;;;;;5.27;1.93;;;;;;;9.40;100.00;101180.38;2087863;28;20224;-73
2023/11/21 01:16:00;;;;;;;2.47;1.60;;;;;;;9.40;100.00;101177.59;2086124;28;20482;-73
2023/11/21 01:17:01;;;;;;;4.40;1.97;;;;;;;9.39;100.00;101176.81;2086048;28;20286;-73
2023/11/21 01:18:03;;;;;;;3.20;1.70;;;;;;;9.33;100.00;101155.56;2086495;28;20219;-74
2023/11/21 01:19:04;;;;;;;3.80;2.00;;;;;;;9.45;100.00;101177.16;2086368;28;20190;-73
2023/11/21 01:20:11;;;;;;;3.20;1.80;;;;;;;9.23;100.00;101140.63;2087212;28;20440;-73
2023/11/21 01:21:11;;;;;;;2.70;1.57;;;;;;;9.40;100.00;101170.09;2094373;28;20505;-73
2023/11/21 01:22:12;;;;;;;2.37;1.43;;;;;;;9.43;100.00;101172.03;2094818;28;20472;-73
2023/11/21 01:23:13;;;;;;;2.53;1.60;;;;;;;9.19;100.00;101139.91;2094464;28;20194;-72
2023/11/21 01:24:14;;;;;;;2.37;1.47;;;;;;;9.45;100.00;101169.66;2094275;28;20205;-72
2023/11/21 01:25:16;;;;;;;4.37;1.83;;;;;;;9.42;100.00;101164.94;2094546;28;20459;-73
2023/11/21 01:26:16;;;;;;;3.37;2.10;;;;;;;9.47;100.00;101160.91;2092968;28;20347;-73
2023/11/21 01:27:17;;;;;;;2.77;1.63;;;;;;;9.48;100.00;101162.50;2091024;28;20446;-73
2023/11/21 01:28:17;;;;;;;2.23;1.10;;;;;;;9.50;100.00;101166.44;2086984;28;20184;-73
2023/11/21 01:29:17;;;;;;;2.60;1.37;;;;;;;9.53;100.00;101162.81;2087072;28;20227;-73
2023/11/21 01:30:18;;;;;;;3.10;1.63;;;;;;;9.51;100.00;101156.13;2095001;28;20183;-73
2023/11/21 01:31:20;;;;;;;2.93;1.53;;;;;;;9.54;100.00;101160.84;2094446;28;20638;-73
2023/11/21 01:32:20;;;;;;;4.13;1.70;;;;;;;9.57;100.00;101165.53;2094586;28;20194;-73
2023/11/21 01:33:21;;;;;;;4.80;1.90;;;;;;;9.64;100.00;101165.50;2089830;28;20541;-73
2023/11/21 01:34:21;;;;;;;4.67;1.47;;;;;;;9.38;100.00;101128.22;2090387;28;20210;-72
2023/11/21 01:35:22;;;;;;;4.77;1.93;;;;;;;8.84;100.00;101042.69;2091992;28;20187;-73
2023/11/21 01:36:22;;;;;;;2.97;1.60;;;;;;;9.67;100.00;101161.88;2086045;28;20188;-73
2023/11/21 01:37:24;;;;;;;3.17;1.33;;;;;;;9.68;100.00;101169.00;2086707;28;20300;-73
2023/11/21 01:38:24;;;;;;;3.60;1.60;;;;;;;9.65;100.00;101161.50;2087065;28;20207;-73
2023/11/21 01:39:25;;;;;;;4.57;1.73;;;;;;;9.65;100.00;101176.16;2093159;28;20447;-73
2023/11/21 01:40:26;;;;;;;3.90;1.90;;;;;;;9.64;100.00;101162.72;2093713;28;20203;-72
2023/11/21 01:41:28;;;;;;;2.43;1.57;;;;;;;9.24;100.00;101100.72;2093736;28;20722;-73
2023/11/21 01:42:29;;;;;;;2.97;1.67;;;;;;;9.68;100.00;101164.25;2091507;28;20180;-72
2023/11/21 01:43:31;;;;;;;3.17;1.63;;;;;;;9.68;100.00;101153.16;2087952;28;20426;-73
2023/11/21 01:44:31;;;;;;;3.53;1.60;;;;;;;9.64;100.00;101159.94;2092605;28;20421;-73
2023/11/21 01:45:33;;;;;;;3.70;1.70;;;;;;;9.63;100.00;101155.63;2087304;28;20438;-73
2023/11/21 01:46:37;;;;;;;2.60;1.27;;;;;;;9.64;100.00;101157.19;2093548;28;20203;-72
2023/11/21 01:47:39;;;;;;;2.97;1.50;;;;;;;9.19;100.00;101095.66;2092866;28;20798;-73
2023/11/21 01:48:40;;;;;;;4.57;1.80;;;;;;;9.65;100.00;101153.22;2087127;28;20432;-72
2023/11/21 01:49:43;;;;;;;3.00;1.63;;;;;;;9.57;100.00;101143.41;2095084;28;20414;-73
2023/11/21 01:50:44;;;;;;;3.03;1.40;;;;;;;9.63;100.00;101152.84;2094527;28;20295;-72
2023/11/21 01:51:48;;;;;;;2.70;1.60;;;;;;;9.61;100.00;101156.03;2094556;28;20461;-73
2023/11/21 01:52:49;;;;;;;2.77;1.60;;;;;;;9.52;100.00;101136.38;2088630;28;20454;-73
2023/11/21 01:53:50;;;;;;;5.60;1.60;;;;;;;9.61;100.00;101153.25;2087221;28;20644;-73
2023/11/21 01:54:51;;;;;;;3.23;1.70;;;;;;;9.64;100.00;101154.41;2091793;28;20198;-72
2023/11/21 01:55:53;;;;;;;4.07;1.70;;;;;;;9.67;100.00;101154.38;2095451;28;20424;-72
2023/11/21 01:56:54;;;;;;;3.67;1.53;;;;;;;9.67;100.00;101156.34;2096340;28;20427;-72
2023/11/21 01:57:56;;;;;;;2.70;1.40;;;;;;;9.68;100.00;101150.41;2095778;28;20515;-72
2023/11/21 01:58:57;;;;;;;3.37;1.60;;;;;;;9.65;100.00;101151.25;2088250;28;20198;-72
2023/11/21 02:00:00;;;;;;;1.60;1.10;;;;;;;9.05;100.00;101046.03;2087817;28;20496;-73
2023/11/21 02:01:01;;;;;;;3.13;1.40;;;;;;;9.61;100.00;101147.72;2088083;28;20191;-72
2023/11/21 02:02:02;;;;;;;5.47;1.87;;;;;;;9.57;100.00;101148.94;2093037;28;20480;-72
2023/11/21 02:03:03;;;;;;;2.30;1.20;;;;;;;9.59;100.00;101150.09;2096068;28;20205;-73
2023/11/21 02:04:04;;;;;;;1.63;1.10;;;;;;;9.59;100.00;101144.56;2092928;28;20460;-73
2023/11/21 02:05:05;;;;;;;6.57;2.00;;;;;;;9.55;100.00;101149.38;2087436;28;20422;-73
2023/11/21 02:06:06;;;;;;;4.60;1.67;;;;;;;9.57;100.00;101151.72;2087831;28;20184;-73
2023/11/21 02:07:06;;;;;;;6.70;1.40;;;;;;;9.50;100.00;101144.31;2096705;28;20190;-72
2023/11/21 02:08:09;;;;;;;3.17;1.43;;;;;;;9.51;100.00;101153.38;2096831;28;20206;-74
2023/11/21 02:09:09;;;;;;;3.87;1.50;;;;;;;9.40;100.00;101155.47;2095869;28;20202;-73
2023/11/21 02:10:14;;;;;;;1.90;1.33;;;;;;;9.34;100.00;101157.13;2095780;28;20546;-72
2023/11/21 02:11:15;;;;;;;4.23;2.07;;;;;;;9.38;100.00;101144.81;2095968;28;20198;-72
2023/11/21 02:12:16;;;;;;;2.65;1.67;;;;;;;9.28;100.00;101140.19;2092269;28;20441;-72
2023/11/21 02:13:16;;;;;;;2.23;1.03;;;;;;;9.44;100.00;101147.91;2090039;28;20713;-72
2023/11/21 02:14:20;;;;;;;2.47;1.20;;;;;;;9.43;100.00;101155.44;2095515;28;20178;-72
2023/11/21 02:15:20;;;;;;;4.10;2.00;;;;;;;9.43;100.00;101152.66;2095021;28;20186;-72
2023/11/21 02:16:21;;;;;;;2.73;1.30;;;;;;;9.46;100.00;101148.28;2094858;28;20431;-72
2023/11/21 02:17:21;;;;;;;2.33;1.30;;;;;;;9.42;100.00;101144.75;2094902;28;20206;-72
2023/11/21 02:18:22;;;;;;;3.07;1.43;;;;;;;9.43;100.00;101144.34;2089870;28;20188;-72
2023/11/21 02:19:25;;;;;;;3.67;2.00;;;;;;;9.41;100.00;101146.75;2092731;28;20211;-72
2023/11/21 02:20:26;;;;;;;1.93;1.30;;;;;;;9.34;100.00;101137.75;2091973;28;20203;-72
2023/11/21 02:21:27;;;;;;;2.70;1.50;;;;;;;9.36;100.00;101141.69;2087417;28;20425;-73
2023/11/21 02:22:32;;;;;;;3.57;1.70;;;;;;;9.41;100.00;101145.97;2088922;28;20476;-73
2023/11/21 02:23:33;;;;;;;2.20;1.50;;;;;;;9.44;100.00;101145.94;2094822;28;20429;-73
2023/11/21 02:24:33;;;;;;;3.67;1.53;;;;;;;9.43;100.00;101147.13;2087768;28;20513;-72
2023/11/21 02:25:35;;;;;;;8.57;2.17;;;;;;;9.40;100.00;101153.50;2094819;28;20197;-72
2023/11/21 02:26:36;;;;;;;3.67;1.73;;;;;;;9.44;100.00;101148.69;2095017;28;20227;-72
2023/11/21 02:27:37;;;;;;;3.10;1.80;;;;;;;9.38;100.00;101138.50;2090296;28;20483;-72
2023/11/21 02:28:38;;;;;;;3.50;1.90;;;;;;;8.87;100.00;101061.22;2087488;28;20189;-72
2023/11/21 02:29:39;;;;;;;3.20;1.50;;;;;;;9.23;100.00;101112.97;2090408;28;20993;-72
2023/11/21 02:30:39;;;;;;;3.37;1.60;;;;;;;9.41;100.00;101148.72;2093957;28;20816;-72
2023/11/21 02:31:47;;;;;;;3.73;1.40;;;;;;;9.45;100.00;101152.25;2088128;28;20228;-72
2023/11/21 02:32:48;;;;;;;3.27;1.80;;;;;;;9.44;100.00;101150.69;2095449;28;20159;-72
2023/11/21 02:33:49;;;;;;;2.93;1.60;;;;;;;8.95;100.00;101091.16;2087908;28;20532;-72
2023/11/21 02:34:49;;;;;;;3.80;1.70;;;;;;;9.25;100.00;101118.88;2091687;28;21052;-72
2023/11/21 02:35:54;;;;;;;5.20;1.80;;;;;;;9.45;100.00;101146.72;2095149;28;20213;-72
2023/11/21 02:36:55;;;;;;;2.80;1.63;;;;;;;9.44;100.00;101145.16;2095272;28;20206;-72
2023/11/21 02:37:55;;;;;;;3.37;1.60;;;;;;;9.45;100.00;101133.69;2095405;28;20450;-73
2023/11/21 02:38:56;;;;;;;6.10;1.87;;;;;;;9.46;100.00;101146.31;2095442;28;20198;-73
2023/11/21 02:39:56;;;;;;;3.33;1.70;;;;;;;9.40;100.00;101133.34;2093943;28;20663;-73
2023/11/21 02:40:58;;;;;;;4.80;1.90;;;;;;;8.86;100.00;101051.38;2087440;28;20179;-73
2023/11/21 02:41:59;;;;;;;5.50;1.90;;;;;;;9.39;100.00;101129.78;2087752;28;20239;-73
2023/11/21 02:42:59;;;;;;;3.60;1.90;;;;;;;9.38;100.00;101128.22;2095883;28;20449;-73
2023/11/21 02:44:00;;;;;;;3.63;1.93;;;;;;;9.41;100.00;101154.25;2095688;28;20184;-73
2023/11/21 02:45:01;;;;;;;3.50;1.80;;;;;;;9.15;100.00;101107.94;2095128;28;20207;-72
2023/11/21 02:46:01;;;;;;;4.63;1.63;;;;;;;9.35;100.00;101139.31;2095533;28;20450;-72
2023/11/21 02:47:02;;;;;;;4.33;1.50;;;;;;;9.29;100.00;101132.66;2093220;28;20197;-72
2023/11/21 02:48:02;;;;;;;5.27;1.57;;;;;;;8.96;100.00;101086.41;2087386;28;20291;-72
2023/11/21 02:49:06;;;;;;;2.77;1.60;;;;;;;8.78;100.00;101077.50;2086702;28;20187;-72
2023/11/21 02:50:09;;;;;;;1.97;1.50;;;;;;;9.24;100.00;101136.69;2096068;28;20475;-72
2023/11/21 02:51:10;;;;;;;3.80;1.67;;;;;;;9.23;100.00;101140.63;2095536;28;20459;-72
2023/11/21 02:52:10;;;;;;;3.07;1.57;;;;;;;9.21;100.00;101139.47;2094560;28;20481;-72
2023/11/21 02:53:11;;;;;;;2.63;1.67;;;;;;;8.88;100.00;101091.22;2095036;28;20631;-72
2023/11/21 02:54:11;;;;;;;3.33;1.50;;;;;;;8.40;100.00;101012.34;2095365;28;20268;-72
2023/11/21 02:55:12;;;;;;;3.17;1.57;;;;;;;9.22;100.00;101141.06;2092154;28;20569;-72
2023/11/21 02:56:13;;;;;;;2.33;1.50;;;;;;;9.20;100.00;101138.69;2086626;28;20540;-72
2023/11/21 02:57:13;;;;;;;2.97;1.67;;;;;;;9.19;100.00;101147.38;2087480;28;20566;-72
2023/11/21 02:58:14;;;;;;;3.93;1.50;;;;;;;9.18;100.00;101140.31;2095963;28;20190;-71
2023/11/21 02:59:15;;;;;;;7.93;2.03;;;;;;;9.21;100.00;101139.47;2095607;28;20548;-71
2023/11/21 03:00:16;;;;;;;3.93;1.80;;;;;;;8.53;100.00;101044.56;2094814;28;20888;-72
2023/11/21 03:01:17;;;;;;;5.83;1.80;;;;;;;9.20;100.00;101141.47;2094501;28;20476;-72
2023/11/21 03:02:17;;;;;;;4.73;1.60;;;;;;;9.15;100.00;101141.09;2091588;28;20250;-72
2023/11/21 03:03:18;;;;;;;2.57;1.40;;;;;;;9.12;100.00;101136.41;2089899;28;20727;-72
2023/11/21 03:04:19;;;;;;;3.90;1.60;;;;;;;9.12;100.00;101139.94;2093835;28;20276;-72
2023/11/21 03:05:20;;;;;;;3.00;1.80;;;;;;;9.11;100.00;101141.16;2086598;28;20267;-72
2023/11/21 03:06:21;;;;;;;2.40;1.50;;;;;;;9.09;100.00;101142.75;2087238;28;20581;-72
2023/11/21 03:07:21;;;;;;;2.90;1.50;;;;;;;9.07;100.00;101145.91;2095588;28;20203;-72
2023/11/21 03:08:22;;;;;;;2.90;1.50;;;;;;;9.05;100.00;101142.78;2097207;28;20238;-72
2023/11/21 03:09:22;;;;;;;4.50;1.73;;;;;;;8.03;100.00;100993.69;2095448;28;20720;-72
2023/11/21 03:10:23;;;;;;;3.67;1.53;;;;;;;9.04;100.00;101145.97;2094772;28;20464;-72
2023/11/21 03:11:23;;;;;;;2.67;1.50;;;;;;;9.02;100.00;101146.34;2092772;28;20286;-72
2023/11/21 03:12:24;;;;;;;4.03;1.90;;;;;;;9.03;100.00;101144.38;2092728;28;20180;-72
2023/11/21 03:13:24;;;;;;;4.73;1.60;;;;;;;8.53;100.00;101074.16;2088544;28;20680;-72
2023/11/21 03:14:24;;;;;;;2.77;1.47;;;;;;;9.01;100.00;101144.00;2095956;28;20249;-72
2023/11/21 03:15:25;;;;;;;4.17;2.07;;;;;;;9.00;100.00;101140.47;2095066;28;20191;-72
2023/11/21 03:16:26;;;;;;;2.07;1.20;;;;;;;8.90;100.00;101123.97;2089064;28;20229;-72
2023/11/21 03:17:26;;;;;;;2.87;1.47;;;;;;;8.60;100.00;101083.19;2087598;28;20206;-72
2023/11/21 03:18:29;;;;;;;3.20;1.57;;;;;;;8.96;100.00;101136.19;2090169;28;20186;-72
2023/11/21 03:19:29;;;;;;;2.93;1.37;;;;;;;8.95;100.00;101137.34;2094991;28;20597;-72
2023/11/21 03:20:29;;;;;;;4.93;1.97;;;;;;;8.88;100.00;101127.16;2095478;28;20478;-72
2023/11/21 03:21:30;;;;;;;3.47;1.50;;;;;;;8.94;100.00;101136.56;2095811;28;20182;-72
2023/11/21 03:22:30;;;;;;;2.57;1.67;;;;;;;8.91;100.00;101133.84;2087924;28;20651;-72
2023/11/21 03:23:32;;;;;;;1.53;1.00;;;;;;;8.32;100.00;101046.72;2093445;28;20331;-72
2023/11/21 03:24:32;;;;;;;4.43;1.57;;;;;;;8.54;100.00;101075.72;2090204;28;20350;-72
2023/11/21 03:25:33;;;;;;;3.67;1.70;;;;;;;8.70;100.00;101109.94;2091121;28;20441;-72
2023/11/21 03:26:33;;;;;;;3.13;1.80;;;;;;;8.69;100.00;101116.66;2094571;28;20302;-72
2023/11/21 03:27:34;;;;;;;4.17;1.70;;;;;;;8.53;100.00;101080.50;2093973;28;20180;-72
2023/11/21 03:28:34;;;;;;;5.90;1.60;;;;;;;8.83;100.00;101129.56;2087223;28;20239;-72
2023/11/21 03:29:35;;;;;;;2.00;1.43;;;;;;;8.76;100.00;101122.13;2094843;28;20262;-72
2023/11/21 03:30:35;;;;;;;4.20;1.93;;;;;;;8.80;100.00;101139.47;2087357;28;20195;-72
2023/11/21 03:31:36;;;;;;;2.77;1.30;;;;;;;8.79;100.00;101139.84;2093308;28;20218;-71
2023/11/21 03:32:36;;;;;;;2.90;1.63;;;;;;;8.77;100.00;101139.50;2090926;28;20599;-72
2023/11/21 03:33:37;;;;;;;3.07;1.67;;;;;;;8.69;100.00;101136.00;2090671;28;20690;-72
2023/11/21 03:34:53;;;;;;;2.50;1.50;;;;;;;8.73;100.00;101145.06;2093448;28;20239;-72
2023/11/21 03:35:54;;;;;;;3.23;1.50;;;;;;;7.92;100.00;101025.31;2089141;28;20197;-72
2023/11/21 03:36:55;;;;;;;3.20;1.43;;;;;;;8.68;100.00;101134.44;2095275;28;20911;-72
2023/11/21 03:37:56;;;;;;;4.00;1.40;;;;;;;8.68;100.00;101134.44;2095226;28;20185;-72
2023/11/21 03:38:56;;;;;;;3.33;1.50;;;;;;;8.66;100.00;101136.03;2087447;28;20558;-72
2023/11/21 03:39:57;;;;;;;3.33;1.33;;;;;;;7.84;100.00;100998.97;2093827;28;20190;-72
2023/11/21 03:40:57;;;;;;;4.90;1.63;;;;;;;8.63;100.00;101137.63;2094505;28;20195;-72
2023/11/21 03:41:57;;;;;;;4.33;2.17;;;;;;;8.66;100.00;101139.56;2094525;28;20253;-72
2023/11/21 03:42:58;;;;;;;6.00;2.30;;;;;;;7.93;100.00;101022.13;2091961;28;20245;-72
2023/11/21 03:43:58;;;;;;;3.57;1.70;;;;;;;8.67;100.00;101135.59;2087005;28;20184;-72
2023/11/21 03:44:59;;;;;;;3.67;1.97;;;;;;;8.65;100.00;101137.19;2087621;28;20181;-73
2023/11/21 03:45:59;;;;;;;2.93;1.80;;;;;;;8.50;100.00;101119.97;2094521;28;20534;-71
2023/11/21 03:47:00;;;;;;;3.27;1.90;;;;;;;8.64;100.00;101138.41;2094745;28;20691;-71
2023/11/21 03:48:01;;;;;;;3.73;2.10;;;;;;;8.62;100.00;101144.31;2088681;28;20657;-71
2023/11/21 03:49:02;;;;;;;3.87;2.40;;;;;;;8.63;100.00;101143.16;2092860;28;20735;-71
2023/11/21 03:50:03;;;;;;;4.70;2.00;;;;;;;8.60;100.00;101138.44;2091167;28;20838;-71
2023/11/21 03:51:03;;;;;;;3.23;1.97;;;;;;;8.61;100.00;101147.53;2087113;28;20291;-71
2023/11/21 03:52:05;;;;;;;4.03;2.13;;;;;;;8.61;100.00;101156.56;2089040;28;20414;-71
2023/11/21 03:53:05;;;;;;;4.43;2.30;;;;;;;8.62;100.00;101154.63;2095549;28;20175;-72
2023/11/21 03:54:06;;;;;;;3.80;2.30;;;;;;;8.02;100.00;101074.13;2095732;28;20464;-71
2023/11/21 03:55:07;;;;;;;3.93;2.37;;;;;;;8.59;100.00;101153.44;2095403;28;20190;-71
2023/11/21 03:56:08;;;;;;;4.77;2.07;;;;;;;8.63;100.00;101159.72;2094665;28;20643;-71
2023/11/21 03:57:09;;;;;;;4.13;2.27;;;;;;;8.64;100.00;101157.75;2095204;28;20323;-71
2023/11/21 03:58:09;;;;;;;4.87;2.80;;;;;;;8.65;100.00;101162.06;2094596;28;20183;-71
2023/11/21 03:59:10;;;;;;;5.67;2.70;;;;;;;8.67;100.00;101170.75;2092225;28;20446;-71
2023/11/21 04:00:11;;;;;;;7.20;3.00;;;;;;;8.60;100.00;101149.47;2088956;28;20184;-72
2023/11/21 04:01:11;;;;;;;5.03;2.60;;;;;;;8.67;100.00;101154.94;2094888;28;20172;-71
2023/11/21 04:02:12;;;;;;;5.43;3.10;;;;;;;8.65;100.00;101156.53;2095352;28;20504;-72
2023/11/21 04:03:13;;;;;;;4.23;2.27;;;;;;;8.46;100.00;101126.72;2094767;28;20222;-72
2023/11/21 04:04:13;;;;;;;5.97;3.13;;;;;;;8.63;100.00;101148.69;2094175;28;20688;-71
2023/11/21 04:05:14;;;;;;;5.50;3.03;;;;;;;8.64;100.00;101149.44;2088977;28;20521;-71
2023/11/21 04:06:15;;;;;;;4.57;2.40;;;;;;;8.12;100.00;101076.81;2086764;28;20220;-71
2023/11/21 04:07:15;;;;;;;4.20;2.73;;;;;;;8.63;100.00;101142.34;2090067;28;20263;-71
2023/11/21 04:08:16;;;;;;;4.93;3.20;;;;;;;8.63;100.00;101134.88;2093710;28;20368;-71
2023/11/21 04:09:16;;;;;;;4.93;2.80;;;;;;;8.54;100.00;101108.88;2087005;28;20184;-72
2023/11/21 04:10:18;;;;;;;5.23;2.63;;;;;;;8.71;100.00;101132.84;2086556;28;20199;-71
2023/11/21 04:11:18;;;;;;;4.77;2.87;;;;;;;8.70;100.00;101134.81;2086714;28;20207;-71
2023/11/21 04:12:19;;;;;;;4.53;2.87;;;;;;;8.72;100.00;101135.16;2092122;28;20792;-71
2023/11/21 04:13:19;;;;;;;5.67;2.90;;;;;;;8.75;100.00;101137.13;2094839;28;20232;-71
2023/11/21 04:14:20;;;;;;;4.87;2.70;;;;;;;8.23;100.00;101051.91;2094709;28;20690;-71
2023/11/21 04:15:20;;;;;;;5.60;2.67;;;;;;;8.73;100.00;101122.16;2092546;28;20195;-71
2023/11/21 04:16:21;;;;;;;5.60;3.17;;;;;;;8.79;100.00;101135.13;2086120;28;20183;-71
2023/11/21 04:17:21;;;;;;;8.87;3.27;;;;;;;8.26;100.00;101051.88;2095064;28;20194;-72
2023/11/21 04:18:22;;;;;;;4.63;2.70;;;;;;;8.79;100.00;101128.81;2087506;28;20195;-71
2023/11/21 04:19:22;;;;;;;4.50;2.37;;;;;;;7.91;100.00;100996.13;2087521;28;20250;-71
2023/11/21 04:20:23;;;;;;;4.23;2.50;;;;;;;8.78;100.00;101136.31;2086697;28;20730;-72
2023/11/21 04:21:24;;;;;;;8.00;2.63;;;;;;;8.77;100.00;101137.50;2086402;28;20202;-71
2023/11/21 04:22:24;;;;;;;4.50;2.50;;;;;;;8.76;100.00;101130.41;2089168;28;20558;-71
2023/11/21 04:23:25;;;;;;;7.43;2.70;;;;;;;8.73;100.00;101128.47;2094818;28;20179;-72
2023/11/21 04:24:25;;;;;;;5.73;3.10;;;;;;;8.73;100.00;101134.00;2094505;28;20185;-72
2023/11/21 04:25:27;;;;;;;5.47;2.87;;;;;;;8.74;100.00;101126.47;2094515;28;20178;-71
2023/11/21 04:26:27;;;;;;;4.90;2.50;;;;;;;8.71;100.00;101119.78;2086904;28;20262;-72
2023/11/21 04:27:27;;;;;;;4.10;2.40;;;;;;;8.70;100.00;101132.03;2092703;28;20456;-71
2023/11/21 04:28:28;;;;;;;9.60;2.50;;;;;;;8.69;100.00;101124.94;2094761;28;20698;-72
2023/11/21 04:29:30;;;;;;;4.73;2.10;;;;;;;8.68;100.00;101134.44;2091270;28;20280;-72
2023/11/21 04:30:30;;;;;;;5.37;2.27;;;;;;;8.63;100.00;101118.28;2088796;28;20182;-72
2023/11/21 04:31:31;;;;;;;4.43;2.23;;;;;;;8.63;100.00;101132.09;2094766;28;20417;-72
2023/11/21 04:32:33;;;;;;;3.83;2.30;;;;;;;8.54;100.00;101130.97;2095434;28;20191;-72
2023/11/21 04:33:34;;;;;;;5.57;2.83;;;;;;;8.44;100.00;101132.63;2095022;28;20799;-72
2023/11/21 04:34:34;;;;;;;9.47;3.07;;;;;;;8.47;100.00;101136.56;2089929;28;20217;-72
2023/11/21 04:35:35;;;;;;;5.23;2.70;;;;;;;8.47;100.00;101131.84;2088511;28;20193;-72
2023/11/21 04:36:35;;;;;;;4.10;2.63;;;;;;;8.48;100.00;101136.16;2085788;28;20238;-72
2023/11/21 04:37:36;;;;;;;4.80;2.40;;;;;;;8.25;100.00;101113.06;2089215;28;20554;-72
2023/11/21 04:38:36;;;;;;;7.23;3.07;;;;;;;8.04;100.00;101066.25;2092912;28;20233;-71
2023/11/21 04:39:36;;;;;;;6.30;3.07;;;;;;;8.50;100.00;101139.28;2087144;28;20723;-72
2023/11/21 04:40:37;;;;;;;4.20;2.40;;;;;;;8.53;100.00;101143.22;2095045;28;20174;-72
2023/11/21 04:41:39;;;;;;;6.50;3.20;;;;;;;8.53;100.00;101141.25;2094718;28;20240;-72
2023/11/21 04:42:39;;;;;;;7.50;2.77;;;;;;;8.52;100.00;101144.44;2088168;28;20193;-71
2023/11/21 04:43:40;;;;;;;4.23;2.63;;;;;;;8.48;100.00;101151.94;2087092;28;20727;-72